createdAt,value
2022-10-18T00:00:07.551Z,101842.50
2022-10-18T00:02:34.040Z,101843.19
2022-10-18T00:05:00.534Z,101842.16
2022-10-18T00:07:26.877Z,101850.13
2022-10-18T00:09:53.435Z,101843.66
2022-10-18T00:12:19.829Z,101848.72
2022-10-18T00:14:49.395Z,101847.50
2022-10-18T00:17:15.753Z,101854.63
2022-10-18T00:19:42.103Z,101852.59
2022-10-18T00:22:08.450Z,101848.66
2022-10-18T00:24:35.290Z,101847.44
2022-10-18T00:27:01.617Z,101854.41
2022-10-18T00:29:27.955Z,101856.75
2022-10-18T00:31:54.281Z,101854.69
2022-10-18T00:34:20.618Z,101857.03
2022-10-18T00:36:46.993Z,101853.31
2022-10-18T00:39:18.879Z,101856.34
2022-10-18T00:41:46.473Z,101855.47
2022-10-18T00:44:12.792Z,101855.97
2022-10-18T00:46:44.097Z,101851.84
2022-10-18T00:49:30.738Z,101859.84
2022-10-18T00:52:01.165Z,101847.78
2022-10-18T00:54:29.842Z,101844.00
2022-10-18T00:56:56.599Z,101846.56
2022-10-18T00:59:23.501Z,101841.13
2022-10-18T01:01:50.429Z,101847.22
2022-10-18T01:04:18.943Z,101846.19
2022-10-18T01:09:33.399Z,101840.19
2022-10-18T01:12:13.871Z,101840.00
2022-10-18T01:14:53.502Z,101844.44
2022-10-18T01:17:44.106Z,101841.34
2022-10-18T01:20:55.607Z,101842.19
2022-10-18T01:23:40.971Z,101833.00
2022-10-18T01:26:35.859Z,101830.09
2022-10-18T01:29:18.372Z,101833.84
2022-10-18T01:32:19.031Z,101826.53
2022-10-18T01:34:50.074Z,101831.97
2022-10-18T01:37:19.970Z,101818.53
2022-10-18T01:39:47.959Z,101821.25
2022-10-18T01:42:19.506Z,101826.69
2022-10-18T01:44:48.194Z,101814.97
2022-10-18T01:47:15.612Z,101815.81
2022-10-18T01:49:42.114Z,101817.69
2022-10-18T01:52:13.341Z,101811.25
2022-10-18T01:54:44.780Z,101802.22
2022-10-18T01:57:22.660Z,101812.94
2022-10-18T02:00:15.403Z,101806.44
2022-10-18T02:02:47.279Z,101806.44
2022-10-18T02:05:28.783Z,101810.00
2022-10-18T02:08:32.773Z,101811.72
2022-10-18T02:11:03.723Z,101812.56
2022-10-18T02:13:49.944Z,101810.88
2022-10-18T02:16:29.664Z,101815.28
2022-10-18T02:19:01.343Z,101813.38
2022-10-18T02:21:29.173Z,101818.00
2022-10-18T02:23:59.109Z,101819.66
2022-10-18T02:26:25.825Z,101816.94
2022-10-18T02:28:52.373Z,101815.94
2022-10-18T02:31:42.765Z,101808.44
2022-10-18T02:34:20.386Z,101814.72
2022-10-18T02:36:50.226Z,101815.72
2022-10-18T02:39:25.123Z,101812.00
2022-10-18T02:41:54.282Z,101810.97
2022-10-18T02:44:20.746Z,101803.84
2022-10-18T02:46:47.794Z,101805.72
2022-10-18T02:49:14.139Z,101796.69
2022-10-18T02:51:40.665Z,101805.72
2022-10-18T02:54:08.301Z,101798.56
2022-10-18T02:56:35.466Z,101805.72
2022-10-18T02:59:01.847Z,101803.00
2022-10-18T03:01:28.301Z,101806.72
2022-10-18T03:03:54.675Z,101801.97
2022-10-18T03:06:21.081Z,101802.81
2022-10-18T03:08:47.495Z,101804.69
2022-10-18T03:11:14.175Z,101810.13
2022-10-18T03:13:40.591Z,101810.13
2022-10-18T03:16:07.045Z,101805.53
2022-10-18T03:18:33.491Z,101801.97
2022-10-18T03:21:05.445Z,101810.13
2022-10-18T03:23:31.961Z,101801.13
2022-10-18T03:25:58.409Z,101801.13
2022-10-18T03:28:24.952Z,101804.84
2022-10-18T03:30:51.347Z,101813.88
2022-10-18T03:33:19.673Z,101806.72
2022-10-18T03:35:46.046Z,101805.91
2022-10-18T03:38:12.448Z,101813.22
2022-10-18T03:40:38.798Z,101801.66
2022-10-18T03:43:05.150Z,101814.22
2022-10-18T03:45:31.806Z,101806.28
2022-10-18T03:47:58.323Z,101803.56
2022-10-18T03:50:24.754Z,101805.44
2022-10-18T03:52:51.092Z,101808.16
2022-10-18T03:55:17.513Z,101800.16
2022-10-18T03:57:43.877Z,101803.94
2022-10-18T04:00:10.853Z,101806.66
2022-10-18T04:02:37.235Z,101794.94
2022-10-18T04:05:03.977Z,101794.06
2022-10-18T04:07:30.423Z,101794.06
2022-10-18T04:09:56.835Z,101798.66
2022-10-18T04:12:23.287Z,101796.78
2022-10-18T04:14:49.621Z,101798.50
2022-10-18T04:17:15.985Z,101795.09
2022-10-18T04:19:42.382Z,101796.78
2022-10-18T04:22:10.391Z,101787.78
2022-10-18T04:24:36.855Z,101803.09
2022-10-18T04:27:05.116Z,101801.38
2022-10-18T04:29:31.577Z,101801.22
2022-10-18T04:31:57.948Z,101798.66
2022-10-18T04:34:24.319Z,101800.53
2022-10-18T04:36:50.904Z,101800.72
2022-10-18T04:39:17.659Z,101802.44
2022-10-18T04:41:44.043Z,101803.44
2022-10-18T04:44:10.516Z,101795.28
2022-10-18T04:46:37.021Z,101797.16
2022-10-18T04:49:03.670Z,101801.75
2022-10-18T04:51:30.291Z,101806.16
2022-10-18T04:53:57.051Z,101797.16
2022-10-18T04:56:23.462Z,101804.47
2022-10-18T04:58:49.832Z,101804.47
2022-10-18T05:01:17.154Z,101809.91
2022-10-18T05:03:43.585Z,101808.25
2022-10-18T05:06:10.761Z,101816.41
2022-10-18T05:08:37.376Z,101815.34
2022-10-18T05:11:04.322Z,101810.97
2022-10-18T05:13:31.052Z,101817.41
2022-10-18T05:15:59.401Z,101817.41
2022-10-18T05:18:25.882Z,101811.97
2022-10-18T05:20:52.249Z,101819.13
2022-10-18T05:23:18.586Z,101815.72
2022-10-18T05:25:44.975Z,101817.41
2022-10-18T05:28:34.668Z,101820.13
2022-10-18T05:31:01.713Z,101820.63
2022-10-18T05:33:28.350Z,101814.53
2022-10-18T05:35:54.882Z,101822.00
2022-10-18T05:38:21.438Z,101824.06
2022-10-18T05:40:47.863Z,101816.28
2022-10-18T05:43:14.178Z,101815.63
2022-10-18T05:45:40.601Z,101814.78
2022-10-18T05:48:08.145Z,101816.81
2022-10-18T05:50:38.062Z,101818.53
2022-10-18T05:53:12.520Z,101817.66
2022-10-18T05:55:51.092Z,101809.50
2022-10-18T05:58:17.465Z,101811.38
2022-10-18T06:00:43.795Z,101815.97
2022-10-18T06:03:10.402Z,101823.31
2022-10-18T06:05:36.754Z,101823.47
2022-10-18T06:08:05.318Z,101828.06
2022-10-18T06:10:34.531Z,101835.53
2022-10-18T06:13:00.941Z,101843.88
2022-10-18T06:15:27.299Z,101848.47
2022-10-18T06:17:54.029Z,101839.66
2022-10-18T06:20:20.411Z,101847.16
2022-10-18T06:22:46.787Z,101831.00
2022-10-18T06:25:13.208Z,101835.81
2022-10-18T06:27:39.574Z,101842.06
2022-10-18T06:30:06.604Z,101845.81
2022-10-18T06:32:32.947Z,101847.69
2022-10-18T06:34:59.274Z,101841.41
2022-10-18T06:37:25.863Z,101838.69
2022-10-18T06:39:52.249Z,101845.81
2022-10-18T06:42:21.828Z,101855.66
2022-10-18T06:44:49.821Z,101858.38
2022-10-18T06:47:16.144Z,101850.91
2022-10-18T06:49:42.539Z,101862.78
2022-10-18T06:52:09.612Z,101863.63
2022-10-18T06:54:36.036Z,101865.13
2022-10-18T06:57:03.098Z,101869.56
2022-10-18T06:59:31.331Z,101873.97
2022-10-18T07:01:58.091Z,101881.09
2022-10-18T07:04:26.850Z,101883.81
2022-10-18T07:06:54.342Z,101893.66
2022-10-18T07:09:20.775Z,101893.66
2022-10-18T07:11:47.144Z,101891.97
2022-10-18T07:14:16.306Z,101901.13
2022-10-18T07:16:42.946Z,101907.63
2022-10-18T07:19:09.417Z,101912.56
2022-10-18T07:21:36.221Z,101917.16
2022-10-18T07:24:02.632Z,101916.13
2022-10-18T07:26:33.009Z,101912.75
2022-10-18T07:29:07.565Z,101920.72
2022-10-18T07:31:34.771Z,101924.28
2022-10-18T07:34:01.319Z,101918.00
2022-10-18T07:36:27.720Z,101919.88
2022-10-18T07:38:54.451Z,101919.88
2022-10-18T07:41:21.710Z,101927.00
2022-10-18T07:43:51.004Z,101931.41
2022-10-18T07:46:18.790Z,101927.00
2022-10-18T07:48:45.520Z,101927.00
2022-10-18T07:51:12.706Z,101926.16
2022-10-18T07:53:39.256Z,101934.28
2022-10-18T07:56:11.386Z,101945.00
2022-10-18T07:58:37.796Z,101940.91
2022-10-18T08:01:06.604Z,101940.22
2022-10-18T08:03:33.756Z,101935.25
2022-10-18T08:06:00.272Z,101947.25
2022-10-18T08:08:27.629Z,101945.72
2022-10-18T08:10:54.710Z,101947.88
2022-10-18T08:13:22.254Z,101938.78
2022-10-18T08:15:48.976Z,101939.28
2022-10-18T08:18:15.408Z,101941.28
2022-10-18T08:20:45.530Z,101946.16
2022-10-18T08:23:12.399Z,101943.25
2022-10-18T08:25:38.902Z,101943.06
2022-10-18T08:28:06.691Z,101943.75
2022-10-18T08:30:35.068Z,101933.88
2022-10-18T08:33:02.132Z,101937.44
2022-10-18T08:35:28.546Z,101946.63
2022-10-18T08:37:54.968Z,101950.41
2022-10-18T08:40:21.575Z,101955.84
2022-10-18T08:43:04.749Z,101964.47
2022-10-18T08:45:42.353Z,101963.25
2022-10-18T08:48:21.719Z,101963.72
2022-10-18T08:50:49.646Z,101977.16
2022-10-18T08:53:51.100Z,101970.28
2022-10-18T08:56:21.588Z,101973.03
2022-10-18T08:58:47.981Z,101982.69
2022-10-18T09:01:42.648Z,101985.91
2022-10-18T09:04:40.891Z,101992.66
2022-10-18T09:07:36.751Z,102004.03
2022-10-18T09:10:20.597Z,102000.47
2022-10-18T09:13:06.894Z,101991.66
2022-10-18T09:16:05.915Z,101993.88
2022-10-18T09:18:41.930Z,102009.06
2022-10-18T09:21:24.031Z,102018.28
2022-10-18T09:24:11.239Z,102003.03
2022-10-18T09:26:44.593Z,102017.53
2022-10-18T09:29:29.306Z,102025.97
2022-10-18T09:32:08.058Z,102017.69
2022-10-18T09:34:45.887Z,102009.22
2022-10-18T09:37:16.075Z,102006.69
2022-10-18T09:40:04.698Z,102020.75
2022-10-18T09:42:42.150Z,102025.66
2022-10-18T09:45:16.632Z,102018.47
2022-10-18T09:47:49.983Z,102022.50
2022-10-18T09:50:19.327Z,102025.53
2022-10-18T09:52:51.693Z,102021.78
2022-10-18T09:55:30.630Z,102023.50
2022-10-18T09:58:01.982Z,102018.72
2022-10-18T10:00:33.651Z,102027.72
2022-10-18T10:03:01.885Z,102024.78
2022-10-18T10:05:28.245Z,102031.13
2022-10-18T10:07:59.827Z,102037.88
2022-10-18T10:10:28.778Z,102027.81
2022-10-18T10:13:22.191Z,102018.28
2022-10-18T10:16:01.545Z,102015.00
2022-10-18T10:18:38.042Z,102020.75
2022-10-18T10:21:08.064Z,102023.25
2022-10-18T10:23:44.450Z,102019.16
2022-10-18T10:26:23.893Z,102021.31
2022-10-18T10:28:51.092Z,102017.38
2022-10-18T10:31:25.056Z,102015.97
2022-10-18T10:34:19.934Z,102008.97
2022-10-18T10:36:49.543Z,102006.72
2022-10-18T10:39:19.223Z,102018.94
2022-10-18T10:41:57.027Z,102017.56
2022-10-18T10:44:25.822Z,102009.00
2022-10-18T10:47:04.785Z,102014.91
2022-10-18T10:49:47.480Z,102019.59
2022-10-18T10:52:27.755Z,102012.59
2022-10-18T10:55:05.887Z,102010.50
2022-10-18T10:57:46.097Z,102013.50
2022-10-18T11:00:34.150Z,102007.66
2022-10-18T11:03:28.600Z,102000.16
2022-10-18T11:05:57.805Z,102012.38
2022-10-18T11:08:40.954Z,102016.41
2022-10-18T11:11:27.676Z,102019.78
2022-10-18T11:14:24.808Z,102015.84
2022-10-18T11:17:21.621Z,102007.28
2022-10-18T11:20:07.374Z,102003.81
2022-10-18T11:22:40.713Z,102004.28
2022-10-18T11:25:13.315Z,102009.16
2022-10-18T11:28:02.006Z,102010.47
2022-10-18T11:30:49.796Z,102005.50
2022-10-18T11:33:56.352Z,102007.84
2022-10-18T11:36:25.050Z,102012.75
2022-10-18T11:38:57.612Z,102003.31
2022-10-18T11:41:32.579Z,102001.25
2022-10-18T11:44:03.630Z,102001.06
2022-10-18T11:46:52.059Z,102008.00
2022-10-18T11:49:27.931Z,102003.22
2022-10-18T11:52:22.308Z,102005.56
2022-10-18T11:55:05.179Z,101999.88
2022-10-18T11:57:37.502Z,101991.72
2022-10-18T12:00:22.812Z,101992.19
2022-10-18T12:03:04.662Z,102001.00
2022-10-18T12:05:35.407Z,101999.75
2022-10-18T12:08:20.556Z,101996.47
2022-10-18T12:11:07.962Z,101992.97
2022-10-18T12:13:37.425Z,101993.22
2022-10-18T12:16:06.816Z,101989.06
2022-10-18T12:18:35.939Z,101988.66
2022-10-18T12:21:02.486Z,101992.72
2022-10-18T12:23:28.951Z,101983.28
2022-10-18T12:26:02.371Z,101978.28
2022-10-18T12:28:50.772Z,101971.56
2022-10-18T12:31:37.817Z,101977.47
2022-10-18T12:34:27.004Z,101982.56
2022-10-18T12:37:08.378Z,101973.31
2022-10-18T12:39:50.442Z,101987.81
2022-10-18T12:42:30.947Z,101974.16
2022-10-18T12:45:02.805Z,101971.66
2022-10-18T12:47:30.951Z,101964.47
2022-10-18T12:50:00.302Z,101975.41
2022-10-18T12:52:29.594Z,101969.94
2022-10-18T12:55:16.704Z,101979.84
2022-10-18T12:57:53.508Z,101973.50
2022-10-18T13:00:31.965Z,101969.09
2022-10-18T13:03:13.554Z,101984.66
2022-10-18T13:05:54.931Z,101977.47
2022-10-18T13:08:29.265Z,101971.19
2022-10-18T13:11:01.733Z,101988.41
2022-10-18T13:13:42.188Z,101978.53
2022-10-18T13:16:14.425Z,101983.81
2022-10-18T13:18:52.871Z,101975.16
2022-10-18T13:21:42.173Z,101985.03
2022-10-18T13:24:26.129Z,101968.66
2022-10-18T13:30:12.938Z,101973.06
2022-10-18T13:32:49.487Z,101974.75
2022-10-18T13:35:42.580Z,101982.94
2022-10-18T13:38:34.777Z,101974.38
2022-10-18T13:41:02.256Z,101974.16
2022-10-18T13:43:53.328Z,101970.19
2022-10-18T13:46:24.942Z,101980.72
2022-10-18T13:48:53.091Z,101985.16
2022-10-18T13:51:25.448Z,101982.03
2022-10-18T13:54:02.620Z,101978.25
2022-10-18T13:56:46.044Z,101985.59
2022-10-18T13:59:22.648Z,101975.50
2022-10-18T14:02:10.664Z,101981.19
2022-10-18T14:05:24.634Z,101983.25
2022-10-18T14:07:58.201Z,101972.94
2022-10-18T14:11:00.854Z,101989.13
2022-10-18T14:13:38.655Z,101989.53
2022-10-18T14:16:29.955Z,101991.38
2022-10-18T14:19:05.030Z,101981.91
2022-10-18T14:21:38.180Z,101993.00
2022-10-18T14:24:17.552Z,101986.28
2022-10-18T14:26:44.056Z,101990.63
2022-10-18T14:29:19.050Z,101994.78
2022-10-18T14:31:55.124Z,101993.47
2022-10-18T14:34:22.155Z,101983.16
2022-10-18T14:36:49.791Z,101990.25
2022-10-18T14:39:23.932Z,101991.66
2022-10-18T14:41:54.267Z,101987.63
2022-10-18T14:44:31.695Z,101991.78
2022-10-18T14:47:02.005Z,101991.53
2022-10-18T14:49:29.392Z,101995.66
2022-10-18T14:51:58.905Z,102001.72
2022-10-18T14:54:32.769Z,101999.75
2022-10-18T14:57:01.370Z,101993.19
2022-10-18T14:59:32.181Z,102002.75
2022-10-18T15:02:02.107Z,102000.38
2022-10-18T15:04:32.932Z,102002.84
2022-10-18T15:07:02.975Z,102008.69
2022-10-18T15:09:30.270Z,102011.34
2022-10-18T15:11:57.948Z,102016.31
2022-10-18T15:14:27.442Z,102014.81
2022-10-18T15:16:59.633Z,102015.41
2022-10-18T15:19:35.999Z,102014.91
2022-10-18T15:25:14.814Z,102016.22
2022-10-18T15:27:45.337Z,102020.56
2022-10-18T15:30:19.724Z,102022.16
2022-10-18T15:32:52.152Z,102024.59
2022-10-18T15:35:26.164Z,102023.47
2022-10-18T15:37:54.433Z,102010.59
2022-10-18T15:40:24.635Z,102019.31
2022-10-18T15:42:53.842Z,102007.47
2022-10-18T15:45:27.763Z,102018.03
2022-10-18T15:48:06.376Z,102014.34
2022-10-18T15:50:44.352Z,102013.06
2022-10-18T15:53:25.966Z,102014.13
2022-10-18T15:56:06.124Z,102022.22
2022-10-18T15:58:44.581Z,102019.34
2022-10-18T16:01:27.759Z,102019.25
2022-10-18T16:06:25.410Z,102026.13
2022-10-18T16:08:53.081Z,102023.97
2022-10-18T16:11:26.410Z,102018.41
2022-10-18T16:13:56.446Z,102016.41
2022-10-18T16:16:27.463Z,102017.13
2022-10-18T16:18:54.411Z,102026.00
2022-10-18T16:21:22.307Z,102028.53
2022-10-18T16:23:49.742Z,102019.44
2022-10-18T16:26:17.548Z,102018.25
2022-10-18T16:28:44.433Z,102030.03
2022-10-18T16:31:16.813Z,102019.00
2022-10-18T16:33:43.650Z,102024.66
2022-10-18T16:36:18.299Z,102029.97
2022-10-18T16:38:45.830Z,102036.44
2022-10-18T16:41:15.962Z,102036.66
2022-10-18T16:43:44.362Z,102044.63
2022-10-18T16:46:16.906Z,102042.97
2022-10-18T16:48:44.361Z,102039.41
2022-10-18T16:51:11.453Z,102042.16
2022-10-18T16:53:37.922Z,102041.44
2022-10-18T16:56:06.409Z,102045.69
2022-10-18T16:58:33.501Z,102052.31
2022-10-18T17:01:01.818Z,102052.31
2022-10-18T17:03:30.454Z,102064.16
2022-10-18T17:05:56.843Z,102062.47
2022-10-18T17:08:26.359Z,102075.19
2022-10-18T17:10:55.593Z,102083.31
2022-10-18T17:13:23.479Z,102093.28
2022-10-18T17:15:50.908Z,102093.25
2022-10-18T17:18:21.641Z,102088.50
2022-10-18T17:20:49.058Z,102090.34
2022-10-18T17:23:18.620Z,102093.84
2022-10-18T17:25:57.885Z,102099.06
2022-10-18T17:28:33.349Z,102105.28
2022-10-18T17:30:59.731Z,102105.94
2022-10-18T17:33:26.356Z,102101.31
2022-10-18T17:35:52.781Z,102095.03
2022-10-18T17:38:19.117Z,102097.50
2022-10-18T17:40:45.456Z,102101.03
2022-10-18T17:43:13.620Z,102109.09
2022-10-18T17:45:53.419Z,102108.91
2022-10-18T17:48:19.763Z,102101.56
2022-10-18T17:50:46.154Z,102106.75
2022-10-18T17:53:13.122Z,102117.38
2022-10-18T17:55:40.294Z,102112.56
2022-10-18T17:58:06.704Z,102111.50
2022-10-18T18:00:33.064Z,102110.22
2022-10-18T18:03:00.754Z,102115.25
2022-10-18T18:05:32.171Z,102117.59
2022-10-18T18:08:02.943Z,102122.75
2022-10-18T18:10:33.041Z,102125.09
2022-10-18T18:12:59.661Z,102128.56
2022-10-18T18:15:26.096Z,102131.03
2022-10-18T18:17:57.135Z,102147.84
2022-10-18T18:20:24.375Z,102142.34
2022-10-18T18:22:52.101Z,102148.38
2022-10-18T18:25:18.736Z,102149.84
2022-10-18T18:27:45.141Z,102145.00
2022-10-18T18:30:11.761Z,102141.38
2022-10-18T18:32:38.121Z,102140.13
2022-10-18T18:35:04.963Z,102138.72
2022-10-18T18:37:31.394Z,102139.19
2022-10-18T18:39:57.763Z,102136.91
2022-10-18T18:42:24.202Z,102150.88
2022-10-18T18:44:53.595Z,102138.50
2022-10-18T18:47:23.130Z,102136.25
2022-10-18T18:49:49.854Z,102146.47
2022-10-18T18:52:16.226Z,102147.75
2022-10-18T18:54:42.643Z,102147.19
2022-10-18T18:57:12.514Z,102151.22
2022-10-18T18:59:39.020Z,102153.50
2022-10-18T19:02:05.386Z,102153.94
2022-10-18T19:04:31.795Z,102158.06
2022-10-18T19:06:58.178Z,102160.34
2022-10-18T19:09:26.469Z,102165.47
2022-10-18T19:11:55.235Z,102165.91
2022-10-18T19:14:41.270Z,102169.19
2022-10-18T19:17:07.876Z,102175.16
2022-10-18T19:19:34.302Z,102163.94
2022-10-18T19:22:05.055Z,102166.94
2022-10-18T19:24:32.573Z,102165.66
2022-10-18T19:27:01.759Z,102159.69
2022-10-18T19:29:33.983Z,102162.78
2022-10-18T19:32:02.491Z,102163.25
2022-10-18T19:34:30.443Z,102169.91
2022-10-18T19:36:57.635Z,102167.50
2022-10-18T19:39:29.885Z,102166.06
2022-10-18T19:41:58.340Z,102163.81
2022-10-18T19:44:28.362Z,102168.47
2022-10-18T19:46:55.317Z,102167.91
2022-10-18T19:49:21.781Z,102161.09
2022-10-18T19:51:48.217Z,102159.66
2022-10-18T19:54:15.745Z,102151.00
2022-10-18T19:56:43.442Z,102160.38
2022-10-18T19:59:11.255Z,102166.91
2022-10-18T20:01:38.645Z,102165.44
2022-10-18T20:04:06.524Z,102167.69
2022-10-18T20:06:33.226Z,102163.72
2022-10-18T20:08:59.789Z,102161.69
2022-10-18T20:11:28.072Z,102175.72
2022-10-18T20:13:55.819Z,102169.91
2022-10-18T20:16:28.138Z,102175.81
2022-10-18T20:19:00.607Z,102182.59
2022-10-18T20:21:28.565Z,102183.16
2022-10-18T20:23:55.438Z,102184.56
2022-10-18T20:26:22.981Z,102178.56
2022-10-18T20:28:58.101Z,102194.16
2022-10-18T20:31:29.495Z,102194.41
2022-10-18T20:34:01.227Z,102201.78
2022-10-18T20:36:30.110Z,102194.09
2022-10-18T20:38:56.926Z,102189.81
2022-10-18T20:41:28.887Z,102197.19
2022-10-18T20:44:00.656Z,102189.38
2022-10-18T20:46:29.765Z,102190.63
2022-10-18T20:48:56.283Z,102186.38
2022-10-18T20:51:23.322Z,102188.34
2022-10-18T20:53:50.177Z,102195.84
2022-10-18T20:56:20.404Z,102197.06
2022-10-18T20:58:48.740Z,102195.63
2022-10-18T21:01:19.087Z,102197.72
2022-10-18T21:03:47.491Z,102210.72
2022-10-18T21:06:19.561Z,102203.06
2022-10-18T21:08:46.482Z,102195.50
2022-10-18T21:11:14.175Z,102199.44
2022-10-18T21:13:43.184Z,102200.66
2022-10-18T21:16:09.584Z,102201.94
2022-10-18T21:18:37.172Z,102215.59
2022-10-18T21:21:26.823Z,102202.41
2022-10-18T21:23:53.565Z,102201.84
2022-10-18T21:26:23.098Z,102211.97
2022-10-18T21:28:54.639Z,102205.97
2022-10-18T21:31:23.292Z,102200.88
2022-10-18T21:34:00.448Z,102209.09
2022-10-18T21:36:29.896Z,102205.91
2022-10-18T21:38:56.307Z,102203.47
2022-10-18T21:41:22.953Z,102202.03
2022-10-18T21:43:51.770Z,102197.75
2022-10-18T21:46:19.496Z,102187.38
2022-10-18T21:48:48.183Z,102193.00
2022-10-18T21:51:20.302Z,102199.50
2022-10-18T21:53:49.716Z,102183.75
2022-10-18T21:56:22.064Z,102182.16
2022-10-18T21:58:48.934Z,102175.34
2022-10-18T22:01:18.339Z,102179.25
2022-10-18T22:03:47.647Z,102183.19
2022-10-18T22:06:14.938Z,102182.56
2022-10-18T22:08:43.493Z,102183.81
2022-10-18T22:11:10.472Z,102185.88
2022-10-18T22:13:36.849Z,102178.91
2022-10-18T22:16:04.778Z,102177.47
2022-10-18T22:18:32.399Z,102171.38
2022-10-18T22:21:01.655Z,102167.94
2022-10-18T22:23:35.467Z,102162.84
2022-10-18T22:26:11.320Z,102170.16
2022-10-18T22:28:38.614Z,102157.72
2022-10-18T22:31:06.250Z,102161.75
2022-10-18T22:33:32.691Z,102160.41
2022-10-18T22:35:59.065Z,102153.69
2022-10-18T22:38:25.996Z,102155.91
2022-10-18T22:40:52.333Z,102157.13
2022-10-18T22:43:18.734Z,102161.03
2022-10-18T22:45:45.097Z,102159.44
2022-10-18T22:48:11.410Z,102162.38
2022-10-18T22:50:37.740Z,102162.63
2022-10-18T22:53:04.116Z,102161.16
2022-10-18T22:55:30.464Z,102160.44
2022-10-18T22:57:56.790Z,102160.69
2022-10-18T23:00:23.222Z,102153.72
2022-10-18T23:02:49.898Z,102163.81
2022-10-18T23:05:16.274Z,102159.53
2022-10-18T23:07:47.673Z,102160.66
2022-10-18T23:10:14.128Z,102159.19
2022-10-18T23:12:40.555Z,102169.19
2022-10-18T23:15:07.633Z,102165.91
2022-10-18T23:17:34.180Z,102154.53
2022-10-18T23:20:00.707Z,102146.69
2022-10-18T23:22:27.066Z,102149.63
2022-10-18T23:24:53.381Z,102147.19
2022-10-18T23:27:19.734Z,102149.97
2022-10-18T23:29:46.119Z,102143.03
2022-10-18T23:32:12.493Z,102147.63
2022-10-18T23:34:38.851Z,102147.78
2022-10-18T23:37:05.327Z,102148.88
2022-10-18T23:39:31.649Z,102147.19
2022-10-18T23:41:57.985Z,102148.25
2022-10-18T23:44:24.407Z,102157.41
2022-10-18T23:46:50.731Z,102154.81
2022-10-18T23:49:17.067Z,102158.59
2022-10-18T23:51:43.404Z,102162.25
2022-10-18T23:54:09.809Z,102159.78
2022-10-18T23:56:38.499Z,102152.72
2022-10-18T23:59:04.879Z,102160.16
